createdAt,value
2018-07-23T00:00:34.971Z,52.30
2018-07-23T00:03:03.194Z,52.70
2018-07-23T00:10:42.155Z,52.90
2018-07-23T00:15:38.451Z,52.70
2018-07-23T00:18:06.862Z,52.60
2018-07-23T00:20:35.079Z,52.50
2018-07-23T00:23:03.304Z,52.40
2018-07-23T00:25:31.659Z,52.40
2018-07-23T00:27:59.903Z,52.40
2018-07-23T00:30:28.208Z,52.40
2018-07-23T00:32:56.683Z,52.20
2018-07-23T00:35:25.090Z,52.10
2018-07-23T00:37:53.347Z,52.10
2018-07-23T00:40:21.564Z,51.80
2018-07-23T00:42:50.998Z,51.80
2018-07-23T00:45:19.870Z,51.70
2018-07-23T00:47:48.530Z,51.50
2018-07-23T00:50:16.858Z,50.70
2018-07-23T00:52:45.107Z,50.00
2018-07-23T00:55:13.678Z,49.60
2018-07-23T00:57:41.936Z,49.40
2018-07-23T01:00:10.241Z,49.30
2018-07-23T01:02:38.514Z,49.20
2018-07-23T01:05:07.221Z,49.50
2018-07-23T01:07:35.724Z,49.70
2018-07-23T01:10:04.373Z,50.00
2018-07-23T01:12:34.026Z,50.00
2018-07-23T01:15:02.543Z,50.10
2018-07-23T01:17:30.872Z,50.50
2018-07-23T01:20:00.144Z,50.60
2018-07-23T01:22:29.131Z,50.50
2018-07-23T01:24:58.309Z,50.60
2018-07-23T01:27:26.624Z,50.70
2018-07-23T01:29:55.012Z,50.60
2018-07-23T01:32:23.358Z,50.40
2018-07-23T01:34:51.819Z,50.20
2018-07-23T01:37:20.074Z,50.00
2018-07-23T01:39:48.382Z,50.00
2018-07-23T01:42:17.003Z,49.80
2018-07-23T01:44:51.353Z,49.60
2018-07-23T01:47:19.614Z,49.60
2018-07-23T01:49:47.990Z,49.70
2018-07-23T01:52:16.289Z,49.70
2018-07-23T01:54:44.956Z,49.70
2018-07-23T01:57:13.481Z,49.80
2018-07-23T01:59:41.846Z,49.80
2018-07-23T02:04:38.956Z,50.20
2018-07-23T02:07:07.710Z,50.10
2018-07-23T02:09:35.947Z,50.20
2018-07-23T02:12:04.854Z,50.30
2018-07-23T02:14:33.132Z,50.10
2018-07-23T02:17:01.542Z,50.00
2018-07-23T02:19:29.778Z,50.10
2018-07-23T02:21:58.087Z,49.90
2018-07-23T02:24:26.310Z,50.00
2018-07-23T02:26:54.507Z,49.90
2018-07-23T02:29:22.722Z,49.90
2018-07-23T02:31:50.906Z,49.90
2018-07-23T02:34:19.236Z,50.10
2018-07-23T02:36:47.802Z,50.30
2018-07-23T02:39:16.047Z,50.40
2018-07-23T02:41:44.256Z,50.50
2018-07-23T02:44:12.745Z,51.20
2018-07-23T02:46:41.642Z,50.70
2018-07-23T02:49:10.094Z,50.80
2018-07-23T02:51:38.306Z,50.90
2018-07-23T02:54:06.567Z,50.90
2018-07-23T02:56:34.988Z,51.00
2018-07-23T02:59:03.290Z,51.20
2018-07-23T03:01:31.512Z,51.30
2018-07-23T03:03:59.811Z,51.40
2018-07-23T03:06:29.434Z,51.60
2018-07-23T03:08:57.934Z,51.90
2018-07-23T03:11:27.144Z,52.00
2018-07-23T03:13:55.531Z,52.10
2018-07-23T03:16:24.539Z,52.30
2018-07-23T03:18:52.782Z,52.40
2018-07-23T03:21:21.082Z,52.60
2018-07-23T03:23:49.285Z,52.70
2018-07-23T03:26:17.510Z,52.80
2018-07-23T03:28:45.710Z,53.00
2018-07-23T03:31:13.990Z,53.20
2018-07-23T03:33:42.205Z,53.30
2018-07-23T03:36:10.443Z,53.50
2018-07-23T03:38:38.653Z,54.00
2018-07-23T03:41:07.418Z,54.50
2018-07-23T03:43:35.879Z,55.10
2018-07-23T03:46:04.106Z,55.60
2018-07-23T03:48:32.374Z,55.90
2018-07-23T03:51:00.602Z,56.20
2018-07-23T03:53:28.911Z,56.30
2018-07-23T03:55:57.166Z,56.50
2018-07-23T04:00:53.410Z,56.70
2018-07-23T04:03:21.645Z,56.70
2018-07-23T04:05:50.215Z,56.30
2018-07-23T04:08:18.474Z,55.80
2018-07-23T04:10:46.914Z,55.40
2018-07-23T04:13:15.337Z,55.20
2018-07-23T04:15:48.758Z,55.10
2018-07-23T04:18:16.998Z,54.90
2018-07-23T04:20:45.231Z,54.90
2018-07-23T04:23:13.494Z,55.00
2018-07-23T04:25:41.788Z,55.00
2018-07-23T04:28:10.039Z,54.90
2018-07-23T04:30:38.278Z,54.60
2018-07-23T04:33:06.849Z,54.50
2018-07-23T04:38:03.248Z,54.20
2018-07-23T04:40:31.543Z,54.40
2018-07-23T04:42:59.887Z,55.10
2018-07-23T04:45:28.315Z,55.30
2018-07-23T04:47:56.579Z,55.60
2018-07-23T04:50:24.938Z,55.60
2018-07-23T04:52:53.226Z,55.80
2018-07-23T04:55:21.742Z,55.90
2018-07-23T04:57:49.985Z,56.20
2018-07-23T05:00:18.769Z,56.70
2018-07-23T05:02:47.358Z,57.00
2018-07-23T05:05:17.350Z,57.10
2018-07-23T05:07:45.629Z,57.30
2018-07-23T05:10:14.120Z,57.50
2018-07-23T05:12:42.644Z,57.60
2018-07-23T05:15:10.914Z,57.70
2018-07-23T05:17:39.123Z,57.70
2018-07-23T05:20:07.465Z,58.00
2018-07-23T05:22:36.224Z,58.00
2018-07-23T05:25:04.955Z,58.00
2018-07-23T05:27:35.128Z,58.00
2018-07-23T05:30:03.751Z,58.00
2018-07-23T05:32:32.455Z,57.70
2018-07-23T05:35:01.628Z,57.90
2018-07-23T05:39:58.223Z,57.50
2018-07-23T05:42:26.790Z,57.00
2018-07-23T05:44:55.138Z,57.00
2018-07-23T05:47:23.419Z,57.10
2018-07-23T05:49:51.970Z,57.20
2018-07-23T05:52:20.405Z,57.00
2018-07-23T05:54:49.648Z,56.70
2018-07-23T05:57:18.085Z,56.60
2018-07-23T05:59:48.892Z,56.50
2018-07-23T06:02:19.324Z,56.20
2018-07-23T06:09:47.085Z,55.60
2018-07-23T06:12:20.241Z,55.50
2018-07-23T06:14:50.099Z,55.50
2018-07-23T06:17:19.213Z,55.30
2018-07-23T06:19:49.806Z,55.30
2018-07-23T06:22:19.326Z,55.30
2018-07-23T06:24:48.913Z,55.50
2018-07-23T06:27:17.376Z,55.60
2018-07-23T06:29:45.744Z,55.70
2018-07-23T06:32:14.108Z,55.60
2018-07-23T06:34:42.500Z,55.60
2018-07-23T06:37:10.821Z,55.50
2018-07-23T06:39:39.238Z,55.50
2018-07-23T06:42:08.351Z,55.40
2018-07-23T06:44:41.448Z,55.10
2018-07-23T06:47:10.056Z,54.50
2018-07-23T06:49:38.515Z,53.50
2018-07-23T06:52:06.971Z,53.00
2018-07-23T06:54:36.174Z,53.10
2018-07-23T06:57:05.216Z,53.70
2018-07-23T06:59:34.686Z,53.10
2018-07-23T07:02:03.999Z,53.20
2018-07-23T07:04:32.280Z,53.20
2018-07-23T07:07:03.030Z,53.40
2018-07-23T07:09:31.355Z,53.70
2018-07-23T07:14:28.435Z,54.10
2018-07-23T07:16:57.662Z,54.10
2018-07-23T07:19:25.942Z,53.70
2018-07-23T07:21:54.234Z,53.50
2018-07-23T07:24:22.613Z,53.20
2018-07-23T07:26:52.063Z,52.80
2018-07-23T07:29:23.922Z,52.60
2018-07-23T07:31:53.954Z,52.40
2018-07-23T07:34:22.603Z,52.20
2018-07-23T07:36:50.982Z,52.20
2018-07-23T07:39:19.363Z,52.10
2018-07-23T07:41:47.798Z,52.00
2018-07-23T07:44:16.528Z,51.80
2018-07-23T07:55:32.424Z,50.80
2018-07-23T07:58:02.455Z,51.00
2018-07-23T08:00:38.106Z,51.20
2018-07-23T08:06:23.030Z,51.10
2018-07-23T08:11:37.445Z,50.50
2018-07-23T08:14:11.084Z,50.00
2018-07-23T08:24:56.279Z,48.90
2018-07-23T08:27:24.911Z,48.70
2018-07-23T08:29:54.854Z,48.30
2018-07-23T08:32:24.045Z,48.20
2018-07-23T08:37:27.044Z,47.80
2018-07-23T08:39:57.806Z,47.10
2018-07-23T08:42:27.774Z,46.50
2018-07-23T08:44:56.411Z,46.40
2018-07-23T08:47:27.089Z,46.50
2018-07-23T08:49:55.531Z,46.50
2018-07-23T08:52:25.381Z,45.80
2018-07-23T08:54:55.094Z,45.50
2018-07-23T08:57:24.230Z,45.50
2018-07-23T08:59:53.443Z,45.00
2018-07-23T09:02:22.324Z,45.00
2018-07-23T09:04:51.422Z,44.50
2018-07-23T09:07:21.131Z,44.10
2018-07-23T09:09:50.179Z,43.70
2018-07-23T09:12:20.996Z,43.80
2018-07-23T09:14:51.294Z,44.00
2018-07-23T09:17:20.495Z,44.30
2018-07-23T09:19:52.018Z,45.20
2018-07-23T09:22:20.514Z,45.60
2018-07-23T09:24:54.932Z,45.60
2018-07-23T09:27:25.164Z,45.30
2018-07-23T09:29:54.042Z,44.40
2018-07-23T09:32:24.154Z,44.90
2018-07-23T09:34:52.830Z,46.30
2018-07-23T09:37:21.611Z,47.00
2018-07-23T09:39:50.723Z,47.10
2018-07-23T09:42:19.588Z,46.60
2018-07-23T09:44:48.677Z,46.40
2018-07-23T09:47:20.023Z,45.80
2018-07-23T09:49:50.350Z,45.50
2018-07-23T09:52:21.127Z,45.00
2018-07-23T09:54:50.876Z,44.80
2018-07-23T09:57:20.594Z,44.50
2018-07-23T09:59:51.326Z,44.80
2018-07-23T10:02:21.184Z,45.00
2018-07-23T10:04:49.423Z,45.20
2018-07-23T10:07:18.798Z,45.60
2018-07-23T10:09:51.275Z,45.50
2018-07-23T10:12:21.610Z,45.30
2018-07-23T10:14:51.007Z,44.90
2018-07-23T10:17:30.455Z,44.70
2018-07-23T10:20:02.988Z,44.60
2018-07-23T10:22:36.746Z,44.60
2018-07-23T10:25:07.098Z,44.70
2018-07-23T10:27:37.062Z,44.70
2018-07-23T10:30:12.985Z,45.10
2018-07-23T10:32:43.952Z,45.40
2018-07-23T10:35:13.984Z,45.30
2018-07-23T10:37:43.646Z,45.00
2018-07-23T10:40:14.691Z,44.80
2018-07-23T10:42:48.396Z,44.70
2018-07-23T10:45:17.150Z,44.90
2018-07-23T10:47:45.677Z,45.20
2018-07-23T10:50:14.630Z,44.80
2018-07-23T10:55:26.838Z,45.20
2018-07-23T10:57:56.517Z,45.60
2018-07-23T11:00:25.691Z,45.60
2018-07-23T11:02:55.291Z,45.80
2018-07-23T11:05:35.158Z,46.50
2018-07-23T11:08:05.131Z,47.10
2018-07-23T11:10:37.658Z,47.30
2018-07-23T11:13:06.291Z,47.30
2018-07-23T11:15:46.064Z,47.50
2018-07-23T11:18:14.692Z,47.50
2018-07-23T11:20:43.357Z,47.60
2018-07-23T11:23:12.894Z,47.80
2018-07-23T11:25:41.449Z,47.60
2018-07-23T11:28:10.239Z,47.90
2018-07-23T11:30:38.779Z,47.90
2018-07-23T11:33:07.291Z,46.90
2018-07-23T11:35:36.323Z,46.50
2018-07-23T11:38:05.809Z,46.70
2018-07-23T11:40:35.323Z,46.70
2018-07-23T11:43:04.123Z,46.50
2018-07-23T11:48:02.404Z,45.90
2018-07-23T11:50:32.064Z,45.10
2018-07-23T11:53:05.989Z,45.00
2018-07-23T11:55:38.104Z,44.90
2018-07-23T11:58:09.178Z,44.90
2018-07-23T12:00:37.814Z,44.50
2018-07-23T12:03:18.325Z,44.50
2018-07-23T12:05:56.900Z,44.20
2018-07-23T12:08:36.800Z,43.50
2018-07-23T12:11:15.783Z,43.80
2018-07-23T12:13:44.651Z,43.70
2018-07-23T12:16:13.071Z,43.90
2018-07-23T12:18:42.013Z,44.20
2018-07-23T12:21:13.929Z,44.50
2018-07-23T12:23:47.935Z,44.40
2018-07-23T12:26:21.404Z,44.10
2018-07-23T12:28:51.730Z,44.30
2018-07-23T12:31:28.604Z,44.70
2018-07-23T12:33:58.292Z,44.80
2018-07-23T12:36:27.855Z,44.80
2018-07-23T12:39:06.231Z,44.80
2018-07-23T12:41:36.431Z,44.30
2018-07-23T12:44:05.958Z,44.20
2018-07-23T12:46:37.183Z,44.00
2018-07-23T12:49:09.474Z,43.80
2018-07-23T12:51:39.108Z,43.30
2018-07-23T12:54:28.379Z,42.70
2018-07-23T12:57:03.788Z,42.40
2018-07-23T12:59:33.558Z,42.50
2018-07-23T13:02:08.698Z,42.90
2018-07-23T13:04:48.991Z,43.40
2018-07-23T13:07:18.111Z,43.80
2018-07-23T13:09:49.459Z,43.40
2018-07-23T13:12:19.888Z,43.40
2018-07-23T13:17:30.560Z,43.10
2018-07-23T13:22:37.890Z,43.50
2018-07-23T13:25:27.842Z,43.70
2018-07-23T13:30:52.548Z,43.80
2018-07-23T13:33:21.593Z,43.70
2018-07-23T13:36:04.850Z,44.00
2018-07-23T13:38:36.409Z,44.30
2018-07-23T13:41:05.581Z,44.30
2018-07-23T13:43:36.515Z,44.00
2018-07-23T13:46:05.525Z,43.10
2018-07-23T13:48:39.356Z,43.00
2018-07-23T13:51:20.434Z,43.00
2018-07-23T13:54:03.208Z,43.10
2018-07-23T13:56:38.638Z,42.60
2018-07-23T13:59:14.039Z,42.30
2018-07-23T14:04:28.854Z,42.00
2018-07-23T14:07:00.201Z,42.20
2018-07-23T14:15:01.887Z,41.30
2018-07-23T14:17:31.756Z,41.80
2018-07-23T14:20:04.344Z,41.80
2018-07-23T14:22:33.992Z,41.60
2018-07-23T14:25:13.955Z,41.30
2018-07-23T14:27:43.861Z,41.40
2018-07-23T14:30:13.628Z,41.30
2018-07-23T14:32:43.786Z,41.60
2018-07-23T14:35:15.478Z,41.70
2018-07-23T14:37:51.800Z,42.10
2018-07-23T14:40:21.348Z,42.30
2018-07-23T14:42:50.891Z,42.10
2018-07-23T14:45:19.687Z,41.80
2018-07-23T14:47:53.511Z,41.80
2018-07-23T14:50:22.470Z,41.70
2018-07-23T14:52:52.123Z,41.70
2018-07-23T14:55:25.842Z,41.70
2018-07-23T14:57:54.445Z,41.80
2018-07-23T15:00:25.296Z,41.10
2018-07-23T15:02:54.852Z,39.40
2018-07-23T15:05:23.749Z,37.90
2018-07-23T15:07:56.918Z,37.30
2018-07-23T15:13:14.277Z,36.80
2018-07-23T15:15:47.710Z,35.60
2018-07-23T15:18:22.888Z,34.60
2018-07-23T15:20:53.103Z,34.00
2018-07-23T15:23:24.206Z,33.20
2018-07-23T15:26:04.360Z,32.70
2018-07-23T15:28:33.132Z,31.90
2018-07-23T15:31:04.181Z,30.70
2018-07-23T15:33:33.882Z,29.70
2018-07-23T15:36:19.290Z,29.20
2018-07-23T15:38:48.514Z,29.00
2018-07-23T15:41:19.525Z,28.80
2018-07-23T15:43:51.613Z,28.60
2018-07-23T15:46:32.965Z,28.50
2018-07-23T15:49:01.981Z,28.20
2018-07-23T15:51:30.519Z,28.20
2018-07-23T15:54:01.005Z,28.10
2018-07-23T15:56:30.626Z,27.90
2018-07-23T15:58:59.339Z,27.80
2018-07-23T16:01:28.956Z,27.60
2018-07-23T16:03:58.473Z,27.70
2018-07-23T16:06:29.410Z,27.80
2018-07-23T16:09:01.204Z,27.90
2018-07-23T16:11:34.227Z,28.00
2018-07-23T16:14:03.133Z,27.90
2018-07-23T16:16:33.639Z,28.10
2018-07-23T16:24:26.465Z,28.60
2018-07-23T16:26:59.040Z,28.90
2018-07-23T16:29:28.058Z,29.10
2018-07-23T16:31:57.425Z,29.10
2018-07-23T16:34:34.571Z,29.00
2018-07-23T16:37:03.539Z,29.00
2018-07-23T16:39:33.318Z,29.30
2018-07-23T16:42:04.355Z,29.60
2018-07-23T16:44:34.009Z,30.50
2018-07-23T16:47:02.884Z,32.50
2018-07-23T16:49:31.456Z,33.00
2018-07-23T16:52:01.229Z,34.00
2018-07-23T16:54:50.534Z,35.00
2018-07-23T16:57:22.149Z,35.70
2018-07-23T16:59:59.166Z,36.50
2018-07-23T17:02:32.512Z,37.10
2018-07-23T17:05:01.741Z,37.80
2018-07-23T17:07:31.473Z,38.40
2018-07-23T17:10:03.321Z,39.00
2018-07-23T17:12:33.830Z,39.40
2018-07-23T17:15:03.467Z,39.50
2018-07-23T17:20:04.913Z,40.20
2018-07-23T17:22:33.361Z,40.30
2018-07-23T17:25:03.334Z,40.50
2018-07-23T17:30:12.623Z,41.20
2018-07-23T17:32:45.969Z,41.50
2018-07-23T17:37:45.811Z,42.10
2018-07-23T17:40:14.472Z,42.50
2018-07-23T17:42:43.312Z,42.60
2018-07-23T17:45:12.100Z,42.60
2018-07-23T17:47:41.955Z,42.70
2018-07-23T17:50:18.843Z,43.00
2018-07-23T17:52:52.597Z,43.20
2018-07-23T17:55:29.398Z,43.30
2018-07-23T17:58:02.602Z,43.50
2018-07-23T18:00:35.230Z,43.60
2018-07-23T18:03:06.750Z,43.90
2018-07-23T18:05:43.445Z,44.30
2018-07-23T18:08:38.636Z,44.40
2018-07-23T18:11:15.219Z,44.60
2018-07-23T18:13:46.896Z,44.60
2018-07-23T18:16:24.052Z,44.90
2018-07-23T18:21:47.849Z,45.20
2018-07-23T18:24:30.123Z,45.20
2018-07-23T18:27:11.886Z,45.40
2018-07-23T18:29:41.746Z,45.40
2018-07-23T18:34:57.834Z,45.80
2018-07-23T18:40:01.930Z,46.40
2018-07-23T18:42:30.501Z,46.40
2018-07-23T18:45:05.935Z,46.50
2018-07-23T18:47:34.587Z,46.60
2018-07-23T18:50:03.390Z,46.70
2018-07-23T18:52:31.800Z,46.70
2018-07-23T18:55:01.455Z,46.90
2018-07-23T18:57:30.088Z,47.00
2018-07-23T19:00:03.071Z,46.90
2018-07-23T19:02:37.878Z,46.90
2018-07-23T19:05:07.864Z,46.90
2018-07-23T19:07:44.500Z,47.00
2018-07-23T19:10:20.989Z,46.90
2018-07-23T19:12:50.184Z,46.90
2018-07-23T19:18:44.861Z,46.90
2018-07-23T19:21:26.077Z,46.80
2018-07-23T19:26:37.890Z,47.10
2018-07-23T19:29:11.006Z,47.10
2018-07-23T19:31:41.559Z,47.10
2018-07-23T19:34:10.730Z,47.20
2018-07-23T19:42:53.757Z,48.30
2018-07-23T19:45:26.217Z,47.90
2018-07-23T19:50:59.909Z,48.80
2018-07-23T19:53:29.730Z,48.20
2018-07-23T19:58:34.177Z,48.40
2018-07-23T20:01:02.747Z,48.70
2018-07-23T20:03:36.860Z,49.10
2018-07-23T20:06:08.700Z,49.70
2018-07-23T20:08:43.593Z,50.00
2018-07-23T20:11:11.972Z,50.40
2018-07-23T20:13:42.382Z,50.70
2018-07-23T20:16:12.810Z,50.70
2018-07-23T20:18:43.646Z,51.00
2018-07-23T20:21:12.789Z,51.20
2018-07-23T20:26:15.601Z,51.50
2018-07-23T20:28:45.994Z,51.60
2018-07-23T20:31:14.572Z,51.60
2018-07-23T20:33:44.683Z,51.70
2018-07-23T20:36:14.138Z,51.80
2018-07-23T20:38:42.466Z,51.80
2018-07-23T20:41:12.501Z,51.90
2018-07-23T20:43:41.922Z,51.90
2018-07-23T20:46:11.115Z,52.00
2018-07-23T20:48:44.597Z,52.00
2018-07-23T20:51:13.393Z,51.60
2018-07-23T20:53:42.954Z,52.10
2018-07-23T20:56:12.550Z,52.20
2018-07-23T20:58:41.356Z,52.30
2018-07-23T21:01:10.088Z,52.30
2018-07-23T21:03:38.671Z,52.20
2018-07-23T21:06:07.025Z,52.30
2018-07-23T21:08:36.073Z,52.40
2018-07-23T21:11:04.338Z,52.30
2018-07-23T21:13:32.698Z,52.30
2018-07-23T21:16:07.070Z,52.40
2018-07-23T21:18:37.014Z,52.40
2018-07-23T21:21:05.274Z,52.40
2018-07-23T21:23:34.063Z,52.40
2018-07-23T21:26:02.441Z,52.40
2018-07-23T21:28:32.043Z,52.40
2018-07-23T21:31:00.353Z,52.50
2018-07-23T21:33:29.822Z,52.60
2018-07-23T21:35:59.051Z,52.80
2018-07-23T21:38:29.535Z,53.00
2018-07-23T21:40:58.094Z,53.20
2018-07-23T21:43:27.351Z,53.30
2018-07-23T21:45:56.970Z,53.60
2018-07-23T21:48:26.153Z,54.10
2018-07-23T21:50:56.040Z,54.30
2018-07-23T21:53:25.975Z,54.70
2018-07-23T21:56:02.773Z,55.20
2018-07-23T21:58:31.451Z,55.40
2018-07-23T22:01:02.593Z,55.70
2018-07-23T22:03:32.799Z,55.70
2018-07-23T22:06:01.244Z,56.00
2018-07-23T22:08:31.402Z,56.00
2018-07-23T22:11:00.470Z,56.20
2018-07-23T22:13:30.068Z,56.30
2018-07-23T22:15:59.223Z,56.40
2018-07-23T22:18:27.546Z,56.50
2018-07-23T22:20:55.974Z,56.70
2018-07-23T22:23:24.786Z,57.00
2018-07-23T22:25:53.454Z,57.10
2018-07-23T22:28:22.488Z,57.20
2018-07-23T22:30:52.211Z,57.50
2018-07-23T22:33:20.820Z,57.50
2018-07-23T22:38:32.207Z,58.00
2018-07-23T22:41:04.318Z,58.20
2018-07-23T22:43:36.811Z,58.50
2018-07-23T22:46:11.751Z,59.30
2018-07-23T22:48:44.131Z,58.90
2018-07-23T22:51:14.230Z,59.10
2018-07-23T22:53:43.942Z,59.30
2018-07-23T22:58:46.836Z,59.90
2018-07-23T23:01:15.330Z,60.30
2018-07-23T23:03:44.262Z,60.40
2018-07-23T23:06:15.791Z,60.60
2018-07-23T23:08:45.019Z,60.80
2018-07-23T23:11:13.622Z,60.90
2018-07-23T23:13:47.385Z,61.00
2018-07-23T23:16:17.771Z,61.00
2018-07-23T23:18:46.618Z,61.00
2018-07-23T23:21:15.119Z,61.10
2018-07-23T23:23:43.678Z,61.20
2018-07-23T23:26:12.758Z,61.30
2018-07-23T23:28:43.228Z,61.40
2018-07-23T23:31:12.086Z,61.40
2018-07-23T23:33:41.011Z,61.40
2018-07-23T23:36:09.505Z,61.30
2018-07-23T23:38:38.401Z,61.20
2018-07-23T23:41:06.692Z,61.20
2018-07-23T23:43:35.450Z,61.20
2018-07-23T23:46:03.824Z,61.10
2018-07-23T23:48:32.078Z,61.00
2018-07-23T23:51:00.494Z,61.00
2018-07-23T23:53:28.821Z,60.90
2018-07-23T23:55:57.730Z,60.90
2018-07-23T23:58:26.855Z,61.00
